Wheeler Sack Army Air Field
KGTB : now visible

Airfield :











YOU CAN JOIN US ON...

 
LOGIN :

Register | Disclaimer

   EN    FR    IT 

 









Legend :    VFR   Marginal VFR   IFR   Intensive IFR   Very Intensive IFR
Visi :
Ceiling :
>= 8 km
>= 3000ft
5 to 8 km
1000 to 3000 ft
1500m to 5 km
500 to 1000 ft
800 to 1500m
200 to 500 ft
< 800m
< 200 ft
Symbols :   Thunderstorms  Fog  Heavy snow  Heavy precipitations  Wind > 20 kt






- Airport Elevation : 688 ft


KGTB - Wheeler Sack Army Air Field

CURRENT METAR :
  • 110256Z AUTO 19005KT 10SM CLR 23/20 A2992 RMK AO2 SLP128 T02330204 50003

EXPIRED METARs :
  • 110156Z AUTO 18007KT 10SM CLR 25/21 A2993 RMK AO2 SLP131 T02490206
  • 110056Z AUTO 19004KT 10SM CLR 24/21 A2993 RMK AO2 SLP131 T02420209

TAF TAF KGTB
Valid from the 11 at 01:00 until the 12 at 07:00 UTC


110100Z 1101/1207 VRB06KT 9999 FEW020 QNH2993INS
BECMG 1112/1113 20012G20KT 9999 SCT020 QNH2991INS
TEMPO 1118/1123 23018G25KT 9000 -TSRA BKN010 OVC020CB
BECMG 1204/1205 VRB06KT 8000 -SHRA BKN015 QNH2993INS TX30/1119Z TN21/1108Z
KZBW FIR / North America



MET'MAP, your aeronautical weather chart ! - Copyright ORBIFLY December 2007 - Disclaimer

ORBIFLY MET'MAP TEAM :

Programming & Development : Alexandra Zaïnal
Concept & original design : Baudouin d'Aumeries
Assistance for programming : Marc-Olivier Méhu
Technical & hardware support : Manuel Goepfert

Contact : metmap@orbifly.com




SOURCES & CREDITS :

   NOAA       Earth
Advisory